Time;durP1;ratioP1;P1;durP2;ratioP2;P2;SDS_P1;SDS_P2;PMS_P1;PMS_P2;Temp;Humidity;BMP_temperature;BMP_pressure;BME280_temperature;BME280_humidity;BME280_pressure;Samples;Min_cycle;Max_cycle;Signal;HPM_P1;HPM_P2
2023/04/17 00:01:46;;;;;;;15.07;6.75;;;;;;;12.01;100.00;101744.72;5000351;28;20485;-77
2023/04/17 00:04:12;;;;;;;13.38;6.60;;;;;;;11.98;100.00;101754.94;5015961;28;20026;-77
2023/04/17 00:06:38;;;;;;;12.75;6.53;;;;;;;11.90;100.00;101754.91;5015970;28;20120;-76
2023/04/17 00:09:04;;;;;;;14.07;6.13;;;;;;;11.81;100.00;101749.44;5000136;28;20046;-77
2023/04/17 00:11:30;;;;;;;16.77;7.47;;;;;;;11.80;100.00;101752.28;5015114;28;20044;-77
2023/04/17 00:13:56;;;;;;;13.90;6.75;;;;;;;11.73;100.00;101744.00;5015952;28;20038;-77
2023/04/17 00:16:21;;;;;;;14.95;6.97;;;;;;;11.74;100.00;101745.69;5017375;28;20034;-77
2023/04/17 00:18:47;;;;;;;12.85;5.65;;;;;;;11.68;100.00;101738.25;5015601;28;20108;-77
2023/04/17 00:21:13;;;;;;;12.07;6.32;;;;;;;11.72;100.00;101745.00;4999922;28;20034;-76
2023/04/17 00:23:38;;;;;;;12.05;6.20;;;;;;;11.68;100.00;101740.09;5015504;28;20025;-78
2023/04/17 00:26:04;;;;;;;14.23;6.82;;;;;;;11.66;100.00;101737.56;4982788;28;20473;-77
2023/04/17 00:28:29;;;;;;;16.30;7.28;;;;;;;11.65;100.00;101734.03;5015608;28;20124;-76
2023/04/17 00:30:57;;;;;;;17.25;7.90;;;;;;;11.66;100.00;101749.19;4999630;28;20037;-77
2023/04/17 00:33:23;;;;;;;11.85;6.28;;;;;;;11.65;100.00;101744.81;4999116;28;20026;-76
2023/04/17 00:35:48;;;;;;;12.82;5.93;;;;;;;11.62;100.00;101738.91;5015674;28;20526;-76
2023/04/17 00:38:14;;;;;;;12.02;6.38;;;;;;;11.60;100.00;101741.75;4982969;28;20041;-76
2023/04/17 00:40:40;;;;;;;12.30;6.10;;;;;;;11.59;100.00;101739.19;5015577;28;20030;-77
2023/04/17 00:43:06;;;;;;;14.18;5.95;;;;;;;11.50;100.00;101721.31;4999024;28;20030;-77
2023/04/17 00:45:32;;;;;;;12.85;5.95;;;;;;;11.64;100.00;101740.44;5015759;28;20097;-76
2023/04/17 00:47:58;;;;;;;9.55;5.30;;;;;;;11.61;100.00;101731.81;4999019;28;20391;-78
2023/04/17 00:50:26;;;;;;;10.10;5.32;;;;;;;11.49;100.00;101711.53;4998387;28;20041;-77
2023/04/17 00:52:53;;;;;;;14.85;6.10;;;;;;;11.62;100.00;101731.66;4982940;28;20388;-76
2023/04/17 00:55:19;;;;;;;10.18;5.40;;;;;;;11.63;100.00;101740.59;5015210;28;20032;-77
2023/04/17 00:57:47;;;;;;;9.90;4.32;;;;;;;11.60;100.00;101733.66;4999130;28;20034;-77
2023/04/17 01:00:12;;;;;;;7.97;3.80;;;;;;;11.56;100.00;101724.19;4982977;28;20507;-77
2023/04/17 01:02:38;;;;;;;8.60;4.70;;;;;;;11.68;100.00;101734.72;4998827;28;20029;-76
2023/04/17 01:05:04;;;;;;;8.25;4.13;;;;;;;11.71;100.00;101737.09;5014542;28;20036;-76
2023/04/17 01:07:30;;;;;;;8.88;4.70;;;;;;;11.72;100.00;101742.31;5014695;28;20053;-77
2023/04/17 01:09:55;;;;;;;9.93;4.63;;;;;;;11.73;100.00;101741.31;4981648;28;20504;-77
2023/04/17 01:12:25;;;;;;;9.88;5.13;;;;;;;11.73;100.00;101735.09;4998817;28;20052;-76
2023/04/17 01:14:52;;;;;;;8.35;4.30;;;;;;;11.71;100.00;101735.25;4982476;28;20384;-77
2023/04/17 01:17:19;;;;;;;8.43;4.18;;;;;;;11.65;100.00;101722.41;5015357;28;20072;-77
2023/04/17 01:19:45;;;;;;;8.32;4.32;;;;;;;11.65;100.00;101722.41;5015158;28;20030;-78
2023/04/17 01:22:11;;;;;;;7.22;4.10;;;;;;;11.68;100.00;101721.25;4981812;28;20038;-78
2023/04/17 01:24:37;;;;;;;10.68;4.78;;;;;;;11.76;100.00;101732.91;4998861;28;20030;-77
2023/04/17 01:27:03;;;;;;;10.85;4.50;;;;;;;11.73;100.00;101727.00;5014348;28;20025;-78
2023/04/17 01:29:31;;;;;;;9.00;4.32;;;;;;;11.73;100.00;101729.72;4997859;28;20052;-78
2023/04/17 01:31:57;;;;;;;5.53;3.65;;;;;;;11.63;100.00;101713.63;4998520;28;20030;-78
2023/04/17 01:34:22;;;;;;;6.63;4.18;;;;;;;11.67;100.00;101728.50;4998349;28;20026;-79
2023/04/17 01:36:48;;;;;;;8.95;3.92;;;;;;;11.67;100.00;101731.19;5014133;28;20037;-78
2023/04/17 01:39:13;;;;;;;8.27;3.97;;;;;;;11.61;100.00;101721.03;5014262;28;20049;-78
2023/04/17 01:41:39;;;;;;;6.03;3.28;;;;;;;11.59;100.00;101733.81;5014486;28;20370;-77
2023/04/17 01:44:05;;;;;;;8.13;4.07;;;;;;;11.54;100.00;101731.63;5014554;28;20148;-77
2023/04/17 01:46:30;;;;;;;8.45;3.97;;;;;;;11.51;100.00;101731.94;5013851;28;20037;-77
2023/04/17 01:48:56;;;;;;;8.85;3.92;;;;;;;11.51;100.00;101725.69;4982167;28;20072;-79
2023/04/17 01:51:21;;;;;;;8.93;4.22;;;;;;;11.45;100.00;101711.84;5013843;28;20029;-78
2023/04/17 01:53:47;;;;;;;7.10;3.78;;;;;;;11.47;100.00;101719.78;4998155;28;20044;-77
2023/04/17 01:56:13;;;;;;;7.82;4.13;;;;;;;11.54;100.00;101731.63;4997723;28;20033;-77
2023/04/17 01:58:39;;;;;;;8.30;3.75;;;;;;;11.57;100.00;101725.06;4998129;28;20121;-78
2023/04/17 02:01:05;;;;;;;8.10;4.43;;;;;;;11.60;100.00;101722.03;4981960;28;20065;-77
2023/04/17 02:03:31;;;;;;;8.70;4.38;;;;;;;11.62;100.00;101722.75;5013855;28;20026;-76
2023/04/17 02:05:57;;;;;;;8.27;4.13;;;;;;;11.60;100.00;101720.19;4998211;28;20060;-77
2023/04/17 02:08:23;;;;;;;10.35;4.85;;;;;;;11.61;100.00;101721.88;4997815;28;20396;-77
2023/04/17 02:10:48;;;;;;;9.30;4.05;;;;;;;11.60;100.00;101717.50;5013312;28;20175;-77
2023/04/17 02:13:14;;;;;;;6.32;3.78;;;;;;;11.57;100.00;101720.50;5013823;28;20033;-77
2023/04/17 02:15:40;;;;;;;8.57;3.92;;;;;;;11.54;100.00;101711.91;5013988;28;20037;-77
2023/04/17 02:18:06;;;;;;;10.93;4.20;;;;;;;11.57;100.00;101716.97;5014059;28;20145;-78
2023/04/17 02:20:33;;;;;;;7.70;3.70;;;;;;;11.57;100.00;101716.97;5013060;28;20034;-77
2023/04/17 02:22:59;;;;;;;8.68;3.72;;;;;;;11.58;100.00;101716.81;4981608;28;20037;-76
2023/04/17 02:25:25;;;;;;;8.63;3.95;;;;;;;11.51;100.00;101715.78;4981413;28;20104;-77
2023/04/17 02:27:52;;;;;;;9.40;4.28;;;;;;;11.48;100.00;101701.75;4981200;28;20076;-77
2023/04/17 02:30:18;;;;;;;8.48;3.75;;;;;;;11.47;100.00;101709.00;4997475;28;20045;-77
2023/04/17 02:32:44;;;;;;;8.45;3.38;;;;;;;11.48;100.00;101713.38;5013006;28;20030;-77
2023/04/17 02:35:10;;;;;;;5.97;3.42;;;;;;;11.49;100.00;101711.53;4996590;28;20446;-77
2023/04/17 02:37:36;;;;;;;9.93;4.53;;;;;;;11.43;100.00;101724.63;5013769;28;20072;-77
2023/04/17 02:40:04;;;;;;;9.15;4.30;;;;;;;11.45;100.00;101724.47;5013381;28;20476;-79
2023/04/17 02:42:29;;;;;;;9.80;4.32;;;;;;;11.36;100.00;101706.56;5012750;28;20040;-76
2023/04/17 02:44:55;;;;;;;7.90;3.05;;;;;;;11.42;100.00;101731.00;5014952;28;20113;-77
2023/04/17 02:47:21;;;;;;;7.75;4.00;;;;;;;11.41;100.00;101726.63;5012902;28;20037;-78
2023/04/17 02:49:46;;;;;;;7.95;4.25;;;;;;;11.36;100.00;101728.97;5013803;28;20030;-78
2023/04/17 02:52:14;;;;;;;10.68;3.85;;;;;;;11.38;100.00;101718.88;5013058;28;20381;-76
2023/04/17 02:54:40;;;;;;;8.63;4.00;;;;;;;11.37;100.00;101724.41;4980683;28;20049;-76
2023/04/17 02:57:05;;;;;;;10.40;4.15;;;;;;;11.33;100.00;101723.88;5013323;28;20534;-77
2023/04/17 02:59:31;;;;;;;9.65;4.20;;;;;;;11.33;100.00;101725.75;5013200;28;20040;-76
2023/04/17 03:01:58;;;;;;;8.48;4.13;;;;;;;11.30;100.00;101720.66;4996108;28;20037;-76
2023/04/17 03:04:26;;;;;;;6.40;3.80;;;;;;;11.32;100.00;101726.72;5012921;28;20030;-76
2023/04/17 03:06:52;;;;;;;14.80;4.03;;;;;;;11.30;100.00;101718.81;5012656;28;20042;-79
2023/04/17 03:09:21;;;;;;;8.27;3.65;;;;;;;11.30;100.00;101718.81;5012828;28;20072;-78
2023/04/17 03:11:49;;;;;;;9.07;4.63;;;;;;;11.24;100.00;101711.34;4980845;28;20037;-78
2023/04/17 03:14:15;;;;;;;8.88;3.78;;;;;;;11.27;100.00;101719.09;4996040;28;20041;-78
2023/04/17 03:16:41;;;;;;;10.52;4.53;;;;;;;11.18;100.00;101715.53;4996571;28;20365;-79
2023/04/17 03:19:07;;;;;;;9.63;3.97;;;;;;;11.10;100.00;101711.94;4980146;28;20100;-78
2023/04/17 03:21:33;;;;;;;7.85;3.90;;;;;;;11.14;100.00;101715.97;5012653;28;20030;-78
2023/04/17 03:23:58;;;;;;;6.30;3.35;;;;;;;11.07;100.00;101712.25;5012190;28;20088;-77
2023/04/17 03:26:24;;;;;;;7.45;3.40;;;;;;;11.12;100.00;101724.22;4980205;28;20472;-78
2023/04/17 03:28:49;;;;;;;8.32;3.65;;;;;;;11.10;100.00;101728.91;5012923;28;20120;-78
2023/04/17 03:31:15;;;;;;;8.15;3.92;;;;;;;11.10;100.00;101728.91;4995633;28;20451;-78
2023/04/17 03:33:41;;;;;;;9.27;3.97;;;;;;;11.08;100.00;101738.97;5012784;28;20109;-78
2023/04/17 03:36:07;;;;;;;7.88;3.65;;;;;;;11.09;100.00;101751.47;4995762;28;20044;-79
2023/04/17 03:38:33;;;;;;;6.32;3.13;;;;;;;11.11;100.00;101745.91;4996156;28;20033;-79
2023/04/17 03:40:59;;;;;;;9.93;3.63;;;;;;;11.15;100.00;101745.44;4980257;28;20037;-80
2023/04/17 03:43:25;;;;;;;7.53;3.45;;;;;;;11.19;100.00;101759.44;5011871;28;20029;-78
2023/04/17 03:45:50;;;;;;;6.32;2.78;;;;;;;11.21;100.00;101754.75;4996129;28;20461;-79
2023/04/17 03:48:16;;;;;;;7.85;3.42;;;;;;;11.22;100.00;101749.22;4996201;28;20041;-80
2023/04/17 03:50:44;;;;;;;5.68;2.83;;;;;;;11.20;100.00;101753.06;4996026;28;20476;-78
2023/04/17 03:53:09;;;;;;;6.68;3.35;;;;;;;11.19;100.00;101756.75;4996058;28;20034;-78
2023/04/17 03:55:38;;;;;;;8.27;3.42;;;;;;;11.20;100.00;101764.69;5013774;28;20034;-77
2023/04/17 03:58:03;;;;;;;6.75;3.35;;;;;;;11.16;100.00;101754.38;4996421;28;20046;-78
2023/04/17 04:00:30;;;;;;;4.70;2.60;;;;;;;11.19;100.00;101764.81;5011770;28;20087;-80
2023/04/17 04:02:56;;;;;;;5.03;2.70;;;;;;;11.21;100.00;101758.28;5012333;28;20553;-80
2023/04/17 04:05:21;;;;;;;7.78;3.33;;;;;;;11.14;100.00;101761.75;5012215;28;20022;-78
2023/04/17 04:07:47;;;;;;;8.00;3.17;;;;;;;11.16;100.00;101755.19;5012285;28;20041;-78
2023/04/17 04:10:13;;;;;;;5.95;3.28;;;;;;;11.18;100.00;101768.53;5011680;28;20113;-78
2023/04/17 04:12:38;;;;;;;4.90;2.33;;;;;;;11.16;100.00;101767.81;5013512;28;20075;-80
2023/04/17 04:15:04;;;;;;;5.65;2.80;;;;;;;11.09;100.00;101758.69;5011955;28;20113;-78
2023/04/17 04:17:30;;;;;;;7.72;3.30;;;;;;;11.05;100.00;101762.69;4995966;28;20384;-78
2023/04/17 04:19:55;;;;;;;7.80;3.17;;;;;;;11.04;100.00;101764.53;5011619;28;20030;-78
2023/04/17 04:22:21;;;;;;;8.50;2.58;;;;;;;10.98;100.00;101759.75;4996034;28;20041;-78
2023/04/17 04:24:47;;;;;;;5.93;2.53;;;;;;;10.94;100.00;101764.59;4995881;28;20041;-78
2023/04/17 04:27:16;;;;;;;6.32;2.30;;;;;;;10.91;100.00;101767.59;4996053;28;20030;-78
2023/04/17 04:29:47;;;;;;;7.47;2.67;;;;;;;10.91;100.00;101770.28;4995913;28;20113;-80
2023/04/17 04:32:14;;;;;;;6.63;3.00;;;;;;;10.89;100.00;101772.28;4996160;28;20396;-79
2023/04/17 04:34:43;;;;;;;6.47;2.63;;;;;;;10.87;100.00;101771.59;4979546;28;20041;-79
2023/04/17 04:37:09;;;;;;;5.90;2.70;;;;;;;10.89;100.00;101774.97;4979707;28;20065;-79
2023/04/17 04:39:36;;;;;;;6.05;2.65;;;;;;;10.90;100.00;101781.19;5011913;28;20113;-79
2023/04/17 04:42:05;;;;;;;5.38;2.05;;;;;;;10.88;100.00;101785.91;4996440;28;20049;-78
2023/04/17 04:44:33;;;;;;;7.82;3.05;;;;;;;10.90;100.00;101792.84;4998423;28;20030;-78
2023/04/17 04:46:59;;;;;;;7.57;3.15;;;;;;;10.89;100.00;101777.66;4999073;28;20037;-78
2023/04/17 04:49:24;;;;;;;6.35;2.60;;;;;;;10.92;100.00;101781.91;4999369;28;20060;-79
2023/04/17 04:51:50;;;;;;;4.45;2.15;;;;;;;10.90;100.00;101779.38;5016068;28;20069;-77
2023/04/17 04:54:16;;;;;;;5.55;2.80;;;;;;;10.93;100.00;101779.06;4999105;28;20125;-82
2023/04/17 04:56:43;;;;;;;6.95;2.80;;;;;;;10.85;100.00;101768.22;5015223;28;20065;-80
2023/04/17 04:59:10;;;;;;;5.28;2.55;;;;;;;10.90;100.00;101775.81;5014690;28;20030;-78
2023/04/17 05:01:35;;;;;;;6.22;2.58;;;;;;;10.86;100.00;101779.81;4998862;28;20468;-78
2023/04/17 05:04:01;;;;;;;5.97;2.13;;;;;;;10.84;100.00;101788.03;5015233;28;20026;-78
2023/04/17 05:06:27;;;;;;;5.60;1.98;;;;;;;10.87;100.00;101801.19;5014453;28;20476;-80
2023/04/17 05:08:52;;;;;;;4.38;2.30;;;;;;;10.88;100.00;101805.59;5016108;28;20026;-80
2023/04/17 05:11:20;;;;;;;5.45;2.30;;;;;;;10.88;100.00;101799.38;4998717;28;20532;-78
2023/04/17 05:13:46;;;;;;;4.40;2.38;;;;;;;10.90;100.00;101816.19;5014934;28;20141;-78
2023/04/17 05:16:11;;;;;;;4.93;2.10;;;;;;;10.89;100.00;101799.19;4998582;28;20488;-77
2023/04/17 05:18:37;;;;;;;5.57;2.30;;;;;;;10.82;100.00;101791.88;4998375;28;20096;-79
2023/04/17 05:21:08;;;;;;;5.75;2.00;;;;;;;10.85;100.00;101799.63;4998949;28;20132;-78
2023/04/17 05:23:41;;;;;;;6.15;2.25;;;;;;;10.91;100.00;101812.50;4998926;28;20030;-79
2023/04/17 05:26:07;;;;;;;4.45;1.88;;;;;;;10.92;100.00;101814.19;5015073;28;20041;-78
2023/04/17 05:28:32;;;;;;;5.30;2.22;;;;;;;10.91;100.00;101826.81;5014705;28;20037;-78
2023/04/17 05:30:58;;;;;;;4.35;2.20;;;;;;;10.90;100.00;101808.09;5014798;28;20030;-80
2023/04/17 05:33:24;;;;;;;4.65;2.50;;;;;;;10.92;100.00;101820.41;5014596;28;20029;-80
2023/04/17 05:35:50;;;;;;;3.78;1.70;;;;;;;10.90;100.00;101813.50;5015920;28;20048;-78
2023/04/17 05:38:16;;;;;;;5.20;2.53;;;;;;;10.88;100.00;101819.03;5014423;28;20028;-77
2023/04/17 05:40:41;;;;;;;5.22;2.20;;;;;;;10.83;100.00;101813.25;4982016;28;20037;-77
2023/04/17 05:43:08;;;;;;;3.85;1.83;;;;;;;10.85;100.00;101810.41;5014586;28;20042;-77
2023/04/17 05:45:34;;;;;;;4.95;2.08;;;;;;;10.84;100.00;101814.94;5014533;28;20044;-78
2023/04/17 05:47:59;;;;;;;4.28;1.88;;;;;;;10.85;100.00;101823.84;5014321;28;20033;-77
2023/04/17 05:50:25;;;;;;;4.55;2.10;;;;;;;10.93;100.00;101829.34;4997997;28;20388;-78
2023/04/17 05:52:53;;;;;;;5.22;2.40;;;;;;;10.90;100.00;101825.13;4981886;28;20033;-78
2023/04/17 05:55:19;;;;;;;5.55;2.33;;;;;;;10.89;100.00;101822.56;4996983;28;20550;-78
2023/04/17 05:57:45;;;;;;;5.68;2.00;;;;;;;10.86;100.00;101820.19;5014299;28;20076;-77
2023/04/17 06:00:12;;;;;;;5.10;2.47;;;;;;;10.91;100.00;101818.72;4997944;28;20066;-78
2023/04/17 06:02:39;;;;;;;4.97;2.03;;;;;;;10.96;100.00;101818.28;4981666;28;20049;-79
2023/04/17 06:05:06;;;;;;;4.72;2.30;;;;;;;10.99;100.00;101820.66;4998131;28;20044;-79
2023/04/17 06:07:33;;;;;;;5.63;2.28;;;;;;;11.02;100.00;101822.19;4980923;28;20061;-79
2023/04/17 06:09:59;;;;;;;4.40;2.08;;;;;;;11.03;100.00;101813.13;4994883;28;20116;-78
2023/04/17 06:12:25;;;;;;;4.13;1.92;;;;;;;11.13;100.00;101827.34;4994274;28;20088;-78
2023/04/17 06:14:50;;;;;;;5.18;2.65;;;;;;;11.03;100.00;101819.34;4995746;28;20033;-77
2023/04/17 06:17:16;;;;;;;3.08;1.60;;;;;;;11.11;100.00;101814.03;4995562;28;20034;-79
2023/04/17 06:19:41;;;;;;;3.33;1.73;;;;;;;11.12;100.00;101812.22;5011737;28;20026;-77
2023/04/17 06:22:07;;;;;;;2.88;1.20;;;;;;;11.21;100.00;101832.81;5012912;28;20396;-78
2023/04/17 06:24:33;;;;;;;1.77;1.17;;;;;;;11.23;100.00;101833.50;5011770;28;20030;-78
2023/04/17 06:26:58;;;;;;;3.90;1.60;;;;;;;11.26;100.00;101829.66;5012495;28;20472;-79
2023/04/17 06:29:24;;;;;;;2.15;0.93;;;;;;;11.33;100.00;101847.75;4980320;28;20033;-79
2023/04/17 06:31:50;;;;;;;2.78;1.00;;;;;;;11.37;100.00;101842.88;5014232;28;20029;-77
2023/04/17 06:34:17;;;;;;;1.33;0.80;;;;;;;11.38;100.00;101844.59;5013584;28;20522;-78
2023/04/17 06:36:43;;;;;;;0.95;0.70;;;;;;;11.42;100.00;101848.66;5014367;28;20128;-77
2023/04/17 06:39:08;;;;;;;2.20;0.93;;;;;;;11.50;100.00;101858.66;5013130;28;20120;-77
2023/04/17 06:41:34;;;;;;;1.00;0.70;;;;;;;11.56;100.00;101852.66;5014626;28;20033;-77
2023/04/17 06:44:00;;;;;;;0.80;0.63;;;;;;;11.62;100.00;101860.13;5014180;28;20526;-78
2023/04/17 06:46:25;;;;;;;1.25;0.70;;;;;;;11.67;100.00;101860.50;4996789;28;20033;-78
2023/04/17 06:48:56;;;;;;;1.63;0.77;;;;;;;11.74;100.00;101869.63;4997048;28;20108;-78
2023/04/17 06:51:24;;;;;;;0.60;0.60;;;;;;;11.74;100.00;101871.50;5013165;28;20037;-78
2023/04/17 06:53:50;;;;;;;1.05;0.73;;;;;;;11.83;100.00;101881.34;5013236;28;20040;-78
2023/04/17 06:56:15;;;;;;;0.82;0.65;;;;;;;11.84;100.00;101870.38;4996714;28;20029;-77
2023/04/17 06:58:44;;;;;;;1.23;0.80;;;;;;;11.97;100.00;101886.19;5013864;28;20034;-79
2023/04/17 07:01:11;;;;;;;0.80;0.60;;;;;;;12.04;100.00;101883.69;4996885;28;20108;-77
2023/04/17 07:03:41;;;;;;;3.85;0.90;;;;;;;12.06;100.00;101873.59;5014042;28;20037;-78
2023/04/17 07:06:07;;;;;;;0.85;0.60;;;;;;;12.20;100.00;101888.34;4996322;28;20032;-79
2023/04/17 07:08:33;;;;;;;0.90;0.70;;;;;;;12.26;100.00;101883.19;4978786;28;20022;-77
2023/04/17 07:10:59;;;;;;;1.88;1.20;;;;;;;12.31;100.00;101891.63;4993481;28;20025;-78
2023/04/17 07:13:25;;;;;;;3.15;1.30;;;;;;;12.30;100.00;101883.69;4995089;28;20034;-78
2023/04/17 07:15:53;;;;;;;4.70;1.85;;;;;;;12.37;100.00;101898.25;5011125;28;20029;-78
2023/04/17 07:18:21;;;;;;;4.82;2.38;;;;;;;12.50;100.00;101900.50;5014015;28;20476;-78
2023/04/17 07:20:47;;;;;;;2.15;1.00;;;;;;;12.52;100.00;101901.19;4996647;28;20056;-77
2023/04/17 07:23:13;;;;;;;5.50;2.83;;;;;;;12.56;100.00;101899.84;4996522;28;20064;-78
2023/04/17 07:25:39;;;;;;;1.50;0.90;;;;;;;12.59;100.00;101901.38;4996876;28;20437;-77
2023/04/17 07:28:05;;;;;;;1.65;0.90;;;;;;;12.51;100.00;101888.69;4981972;28;20080;-78
2023/04/17 07:30:31;;;;;;;1.73;1.30;;;;;;;12.64;100.00;101907.16;4980845;28;20033;-78
2023/04/17 07:32:56;;;;;;;2.28;1.42;;;;;;;12.52;100.00;101888.56;4996678;28;20042;-78
2023/04/17 07:35:22;;;;;;;3.70;2.05;;;;;;;12.70;100.00;101912.75;5012656;28;20463;-77
2023/04/17 07:37:48;;;;;;;4.13;2.33;;;;;;;12.78;100.00;101906.56;5012307;28;20044;-77
2023/04/17 07:40:15;;;;;;;3.63;1.27;;;;;;;12.88;100.00;101914.50;5012367;28;20483;-77
2023/04/17 07:42:41;;;;;;;3.25;1.80;;;;;;;12.93;100.00;101921.09;5012199;28;20073;-78
2023/04/17 07:45:09;;;;;;;3.30;2.40;;;;;;;12.91;100.00;101923.16;5012762;28;20072;-77
2023/04/17 07:47:35;;;;;;;3.60;2.08;;;;;;;12.96;100.00;101906.44;5011950;28;20037;-77
2023/04/17 07:50:02;;;;;;;2.88;2.00;;;;;;;12.97;100.00;101894.66;5012569;28;20412;-77
2023/04/17 07:52:28;;;;;;;3.80;1.88;;;;;;;13.17;100.00;101909.53;4995996;28;20089;-77
2023/04/17 07:54:55;;;;;;;3.60;2.13;;;;;;;13.17;100.00;101923.03;4995975;28;20026;-78
2023/04/17 07:57:21;;;;;;;4.15;2.35;;;;;;;13.24;100.00;101925.09;4996465;28;20037;-78
2023/04/17 07:59:47;;;;;;;6.50;3.63;;;;;;;13.30;100.00;101925.31;5012154;28;20045;-80
2023/04/17 08:02:14;;;;;;;11.20;4.97;;;;;;;13.42;100.00;101923.16;5012486;28;20030;-79
2023/04/17 08:04:40;;;;;;;7.32;3.25;;;;;;;13.62;100.00;101919.09;5012450;28;20125;-78
2023/04/17 08:07:09;;;;;;;3.60;2.10;;;;;;;13.79;100.00;101924.53;5012357;28;20101;-77
2023/04/17 08:09:36;;;;;;;4.95;2.03;;;;;;;13.87;100.00;101927.25;5012483;28;20076;-77
2023/04/17 08:12:02;;;;;;;6.07;2.38;;;;;;;13.92;100.00;101929.41;5012012;28;20021;-77
2023/04/17 08:14:27;;;;;;;3.33;1.80;;;;;;;13.97;100.00;101927.94;4996203;28;20037;-79
2023/04/17 08:16:53;;;;;;;14.05;5.50;;;;;;;13.94;100.00;101925.53;5013180;28;20026;-77
2023/04/17 08:19:19;;;;;;;8.48;4.00;;;;;;;13.97;100.00;101921.66;5017136;28;20088;-77
2023/04/17 08:21:47;;;;;;;3.78;1.92;;;;;;;14.03;100.00;101927.25;5016079;28;20030;-78
2023/04/17 08:24:12;;;;;;;6.85;2.70;;;;;;;14.14;100.00;101928.75;5016365;28;20112;-81
2023/04/17 08:26:38;;;;;;;5.03;1.98;;;;;;;14.24;100.00;101928.56;4981940;28;20056;-78
2023/04/17 08:29:04;;;;;;;4.78;3.30;;;;;;;14.39;100.00;101929.53;4999618;28;20037;-77
2023/04/17 08:31:30;;;;;;;7.93;3.75;;;;;;;14.44;100.00;101935.28;5015873;28;20029;-78
2023/04/17 08:33:58;;;;;;;12.73;5.05;;;;;;;14.50;100.00;101926.50;5017073;28;20097;-78
2023/04/17 08:36:24;;;;;;;9.82;5.72;;;;;;;14.73;99.38;101928.47;4999425;28;20451;-78
2023/04/17 08:38:51;;;;;;;5.95;3.45;;;;;;;14.90;99.25;101934.69;4982978;28;20137;-78
2023/04/17 08:41:23;;;;;;;4.40;2.22;;;;;;;14.95;98.24;101946.69;4983519;28;20036;-77
2023/04/17 08:43:52;;;;;;;2.60;1.80;;;;;;;15.03;96.53;101939.50;4999603;28;20532;-77
2023/04/17 08:46:21;;;;;;;3.97;2.10;;;;;;;15.08;95.70;101942.53;4983336;28;20087;-77
2023/04/17 08:48:46;;;;;;;5.85;2.15;;;;;;;15.12;95.70;101938.47;4998747;28;20037;-77
2023/04/17 08:51:13;;;;;;;3.53;1.27;;;;;;;15.11;95.39;101951.19;5016473;28;20030;-77
2023/04/17 08:53:39;;;;;;;3.10;1.98;;;;;;;15.01;94.78;101955.13;5015552;28;20034;-77
2023/04/17 08:56:06;;;;;;;3.33;1.38;;;;;;;14.97;94.57;101957.31;5015385;28;20038;-77
2023/04/17 08:58:35;;;;;;;3.72;1.75;;;;;;;14.82;94.30;101956.34;4999082;28;20037;-77
2023/04/17 09:01:09;;;;;;;1.33;0.90;;;;;;;14.73;94.96;101945.56;4998793;28;20037;-77
2023/04/17 09:03:42;;;;;;;5.00;2.00;;;;;;;14.71;96.04;101961.16;5015043;28;20034;-77
2023/04/17 09:06:09;;;;;;;;;;;;;;;14.62;96.75;101958.63;4999375;28;20044;-77
2023/04/17 09:08:35;;;;;;;6.50;1.90;;;;;;;14.37;96.96;101928.88;5016224;28;20008;-77
2023/04/17 09:11:01;;;;;;;3.10;2.08;;;;;;;14.63;96.88;101960.31;4998787;28;20116;-78
2023/04/17 09:13:29;;;;;;;3.80;1.67;;;;;;;14.94;97.19;101963.09;5016251;28;20041;-77
2023/04/17 09:16:09;;;;;;;5.03;1.48;;;;;;;15.18;94.65;101960.25;4998706;28;20057;-79
2023/04/17 09:18:36;;;;;;;2.78;1.20;;;;;;;15.33;91.21;101973.06;5016178;28;20022;-78
2023/04/17 09:21:03;;;;;;;2.42;1.50;;;;;;;15.34;91.65;101974.75;4982563;28;20384;-81
2023/04/17 09:23:54;;;;;;;2.28;1.33;;;;;;;15.38;91.53;101979.66;4998921;28;20131;-78
2023/04/17 09:26:25;;;;;;;0.98;0.80;;;;;;;15.26;90.50;101975.63;4998304;28;20473;-78
2023/04/17 09:29:10;;;;;;;2.30;0.90;;;;;;;15.17;90.29;101955.88;4998283;28;20077;-78
2023/04/17 09:31:42;;;;;;;0.70;0.70;;;;;;;15.06;89.64;101958.16;4982599;28;20499;-77
2023/04/17 09:34:09;;;;;;;1.90;1.10;;;;;;;14.98;90.26;101975.28;5014440;28;20111;-80
2023/04/17 09:36:37;;;;;;;0.98;0.77;;;;;;;15.04;91.12;101979.13;4982451;28;20036;-78
2023/04/17 09:39:22;;;;;;;4.57;2.65;;;;;;;15.04;91.46;101979.13;5014660;28;20025;-79
2023/04/17 09:41:48;;;;;;;2.53;1.75;;;;;;;15.24;90.98;101977.72;5014533;28;20044;-75
2023/04/17 09:44:35;;;;;;;3.75;2.42;;;;;;;15.71;89.00;101975.91;4998364;28;20026;-77
2023/04/17 09:47:03;;;;;;;3.17;1.63;;;;;;;16.03;86.31;101970.25;4997988;28;20118;-77
2023/04/17 09:49:32;;;;;;;1.58;0.80;;;;;;;16.32;84.14;101968.63;4998238;28;20042;-78
2023/04/17 09:51:58;;;;;;;3.05;1.30;;;;;;;16.56;81.42;101975.69;5014371;28;20034;-78
2023/04/17 09:54:24;;;;;;;3.03;2.00;;;;;;;16.52;80.37;101982.53;4997838;28;20580;-77
2023/04/17 09:56:51;;;;;;;1.45;1.05;;;;;;;16.43;81.20;101975.47;4997937;28;20050;-76
2023/04/17 09:59:17;;;;;;;3.13;1.45;;;;;;;16.37;80.02;101973.50;5014162;28;20040;-77
2023/04/17 10:01:43;;;;;;;3.70;2.40;;;;;;;16.16;82.84;101979.63;5013785;28;20041;-77
2023/04/17 10:04:09;;;;;;;4.10;1.90;;;;;;;16.13;84.00;101975.44;5014105;28;20034;-77
2023/04/17 10:06:35;;;;;;;2.97;1.65;;;;;;;16.49;83.15;101980.19;4997801;28;20025;-76
2023/04/17 10:09:03;;;;;;;3.80;1.83;;;;;;;16.41;80.83;101983.00;5013910;28;20145;-76
2023/04/17 10:11:33;;;;;;;11.38;5.30;;;;;;;16.15;82.45;101989.66;4997487;28;20060;-77
2023/04/17 10:14:12;;;;;;;7.40;4.82;;;;;;;15.85;83.44;101979.72;5013718;28;20034;-78
2023/04/17 10:16:39;;;;;;;5.22;3.03;;;;;;;15.64;84.75;101996.59;4997470;28;20156;-78
2023/04/17 10:19:34;;;;;;;5.97;3.30;;;;;;;15.46;86.75;101994.19;4997705;28;20033;-78
2023/04/17 10:22:18;;;;;;;10.60;6.78;;;;;;;15.54;86.88;101999.56;4981569;28;20600;-80
2023/04/17 10:24:50;;;;;;;8.85;5.38;;;;;;;15.50;86.29;102006.34;5014677;28;20152;-77
2023/04/17 10:27:28;;;;;;;15.83;9.10;;;;;;;15.42;86.74;102009.09;4981660;28;20125;-78
2023/04/17 10:29:58;;;;;;;8.80;5.15;;;;;;;15.41;87.64;102013.69;5014623;28;20026;-77
2023/04/17 10:32:27;;;;;;;12.93;6.70;;;;;;;15.48;86.65;102008.38;4996957;28;20029;-77
2023/04/17 10:34:57;;;;;;;7.32;5.05;;;;;;;15.79;85.72;102006.53;4997618;28;20030;-78
2023/04/17 10:37:45;;;;;;;8.07;4.90;;;;;;;16.26;84.81;102002.78;5013661;28;20041;-78
2023/04/17 10:40:11;;;;;;;2.63;1.60;;;;;;;16.54;83.44;102007.63;5013911;28;20069;-81
2023/04/17 10:42:37;;;;;;;3.78;1.75;;;;;;;16.69;80.88;102004.91;4997165;28;20125;-77
2023/04/17 10:45:04;;;;;;;2.42;1.08;;;;;;;16.80;79.27;102017.22;5013283;28;20026;-77
2023/04/17 10:47:32;;;;;;;1.30;0.85;;;;;;;17.01;79.50;102020.03;4997097;28;20056;-79
2023/04/17 10:49:58;;;;;;;2.42;1.42;;;;;;;17.29;78.38;102019.38;4981135;28;20072;-78
2023/04/17 10:52:33;;;;;;;2.08;1.10;;;;;;;17.38;76.99;102023.66;5012799;28;20054;-75
2023/04/17 10:55:06;;;;;;;5.60;1.65;;;;;;;17.23;75.85;102023.72;5013126;28;20088;-76
2023/04/17 10:57:51;;;;;;;;;;;;;;;16.98;75.55;102023.13;5013738;28;20056;-76
2023/04/17 11:00:17;;;;;;;2.80;1.00;;;;;;;16.62;76.57;102007.56;5012860;28;19913;-79
2023/04/17 11:02:44;;;;;;;3.67;1.30;;;;;;;16.57;77.63;102009.13;5013131;28;20105;-81
2023/04/17 11:05:10;;;;;;;3.08;1.20;;;;;;;16.65;77.55;102028.06;5012791;28;20069;-78
2023/04/17 11:07:36;;;;;;;2.83;1.23;;;;;;;16.76;78.11;102018.63;5012610;28;20034;-77
2023/04/17 11:10:08;;;;;;;5.40;1.83;;;;;;;16.86;77.38;102024.66;4996712;28;20476;-76
2023/04/17 11:12:34;;;;;;;3.45;1.55;;;;;;;16.99;75.85;102030.28;4996259;28;20093;-77
2023/04/17 11:15:03;;;;;;;4.85;1.90;;;;;;;16.91;74.92;102038.53;4994590;28;20034;-77
2023/04/17 11:17:29;;;;;;;3.80;1.50;;;;;;;16.74;74.66;102024.22;5012463;28;20036;-77
2023/04/17 11:19:55;;;;;;;4.40;1.67;;;;;;;16.67;75.82;102025.97;5011885;28;20022;-78